Terminal Aerodrome Forecast
Issued by NWS

Home | Current Version | Previous Version | Text Only | Print | Product List | Glossary On
Versions: 1 2 3 4 5 6 7 8 9 10 11 12 13 14 15 16 17 18 19 20 21 22 23 24 25 26 27 28 29 30 31 32 33 34 35 36 37 38 39 40 41 42 43 44 45
000
FTAK31 PAFA 141134
TAFASC
TAF
PASC 141134Z 1412/1512 24010KT 6SM -RA BR SCT012 OVC025
     FM141500 27010KT 6SM -RA BR BKN012 OVC025
     FM141800 30010KT 6SM -RA BR OVC012
     FM150300 30010KT P6SM BKN012 OVC025=

USA.gov is the U.S. government's official web portal to all federal, state and local government web resources and services.